This is the latest recevied weather packets stored in our database for station/object GW1496. If no packets are shown the sender has not sent any weather packets the latest 10 day(s).
| Time | Temp. | Humidity | Pressure | Rain* | Wind** | Luminosity | Snow |
|---|---|---|---|---|---|---|---|
| 1777781183 | 3.89° C | 83% | 1006.7 hPa | 0 mm | - | - | - |
| 1777780492 | 4.44° C | 83% | 1006.7 hPa | 0 mm | - | - | - |
| 1777779736 | 4.44° C | 81% | 1006.7 hPa | 0 mm | - | - | - |
| 1777777224 | 5.56° C | 79% | 1006.7 hPa | 0 mm | - | - | - |
| 1777775778 | 6.11° C | 76% | 1006.7 hPa | 0 mm | - | - | - |
| 1777771814 | 7.22° C | 66% | 1006.7 hPa | 0 mm | - | - | - |
| 1777769323 | 8.33° C | 59% | 1006 hPa | 0 mm | - | - | - |
| 1777767495 | 8.89° C | 56% | 1006 hPa | 0 mm | - | - | - |
| 1777765721 | 10.56° C | 45% | 1006 hPa | 0 mm | - | - | - |
| 1777763532 | 11.67° C | 39% | 1005 hPa | 0 mm | - | - | - |
| 1777758851 | 12.22° C | 38% | 1005 hPa | 0 mm | - | - | - |
| 1777755634 | 12.78° C | 37% | 1005 hPa | 0 mm | - | - | - |
| 1777751654 | 12.22° C | 36% | 1005 hPa | 0 mm | - | - | - |
| 1777750969 | 12.22° C | 42% | 1005 hPa | 0 mm | - | - | - |
| 1777746280 | 12.22° C | 37% | 1006 hPa | 0 mm | - | - | - |
| 1777745574 | 12.78° C | 38% | 1006 hPa | 0 mm | - | - | - |
| 1777737984 | 13.33° C | 35% | 1006 hPa | 0 mm | - | - | - |
| 1777735839 | 12.78° C | 36% | 1006 hPa | 0 mm | - | - | - |
| 1777735453 | 12.22° C | 36% | 1006 hPa | 0 mm | - | - | - |
| 1777734042 | 12.22° C | 39% | 1006 hPa | 0 mm | - | - | - |
| 1777732610 | 12.22° C | 38% | 1006 hPa | 0 mm | - | - | - |
| 1777727567 | 10° C | 57% | 1006.7 hPa | 0 mm | - | - | - |
| 1777726834 | 8.33° C | 60% | 1006.7 hPa | 0 mm | - | - | - |
| 1777723604 | 6.11° C | 78% | 1006.7 hPa | 0 mm | - | - | - |
| 1777722891 | 5.56° C | 78% | 1006.7 hPa | 0 mm | - | - | - |
* Rain since midnight (hover to see other rain measurements)
** Current wind speed in m/s (hover to see current wind gust speed)